sensor_id;sensor_type;location;lat;lon;timestamp;temperature;humidity
10662;DHT22;5379;51.034;7.006;2023-08-07T00:00:05;21.50;99.90
10662;DHT22;5379;51.034;7.006;2023-08-07T04:34:21;22.30;99.90
10662;DHT22;5379;51.034;7.006;2023-08-07T04:36:48;22.40;99.90
10662;DHT22;5379;51.034;7.006;2023-08-07T04:39:17;22.30;99.90
10662;DHT22;5379;51.034;7.006;2023-08-07T04:41:44;22.20;99.90
10662;DHT22;5379;51.034;7.006;2023-08-07T04:44:11;22.50;99.90
10662;DHT22;5379;51.034;7.006;2023-08-07T04:46:38;22.60;99.90
10662;DHT22;5379;51.034;7.006;2023-08-07T04:49:06;22.50;99.90
10662;DHT22;5379;51.034;7.006;2023-08-07T04:51:33;22.30;99.90
10662;DHT22;5379;51.034;7.006;2023-08-07T04:54:00;22.40;99.90
10662;DHT22;5379;51.034;7.006;2023-08-07T04:56:27;22.50;99.90
10662;DHT22;5379;51.034;7.006;2023-08-07T04:58:54;22.30;99.90
10662;DHT22;5379;51.034;7.006;2023-08-07T05:01:21;22.50;99.90
10662;DHT22;5379;51.034;7.006;2023-08-07T05:03:48;22.40;99.90
10662;DHT22;5379;51.034;7.006;2023-08-07T05:06:16;22.30;99.90
10662;DHT22;5379;51.034;7.006;2023-08-07T05:08:44;22.10;99.90
10662;DHT22;5379;51.034;7.006;2023-08-07T05:11:11;21.90;99.90
10662;DHT22;5379;51.034;7.006;2023-08-07T05:13:38;22.10;99.90
10662;DHT22;5379;51.034;7.006;2023-08-07T05:16:05;22.00;99.90
10662;DHT22;5379;51.034;7.006;2023-08-07T05:18:32;22.00;99.90
10662;DHT22;5379;51.034;7.006;2023-08-07T05:20:59;22.00;99.90
10662;DHT22;5379;51.034;7.006;2023-08-07T05:23:28;22.40;99.90
10662;DHT22;5379;51.034;7.006;2023-08-07T05:25:54;22.50;99.90
10662;DHT22;5379;51.034;7.006;2023-08-07T05:28:21;22.70;99.90
10662;DHT22;5379;51.034;7.006;2023-08-07T05:30:48;22.60;99.90
10662;DHT22;5379;51.034;7.006;2023-08-07T05:33:15;22.60;99.90
10662;DHT22;5379;51.034;7.006;2023-08-07T05:35:42;22.40;99.90
10662;DHT22;5379;51.034;7.006;2023-08-07T05:38:09;22.50;99.90
10662;DHT22;5379;51.034;7.006;2023-08-07T05:40:37;22.60;99.90
10662;DHT22;5379;51.034;7.006;2023-08-07T05:43:06;22.70;99.90
10662;DHT22;5379;51.034;7.006;2023-08-07T05:45:33;22.70;99.90
10662;DHT22;5379;51.034;7.006;2023-08-07T05:47:59;22.70;99.90
10662;DHT22;5379;51.034;7.006;2023-08-07T05:50:26;22.80;99.90
10662;DHT22;5379;51.034;7.006;2023-08-07T05:52:53;22.70;99.90
10662;DHT22;5379;51.034;7.006;2023-08-07T05:55:20;22.80;99.90
10662;DHT22;5379;51.034;7.006;2023-08-07T05:57:48;23.10;99.90
10662;DHT22;5379;51.034;7.006;2023-08-07T06:00:16;22.60;99.90
10662;DHT22;5379;51.034;7.006;2023-08-07T06:02:45;22.50;99.90
10662;DHT22;5379;51.034;7.006;2023-08-07T06:05:12;22.40;99.90
10662;DHT22;5379;51.034;7.006;2023-08-07T06:07:40;22.30;99.90
10662;DHT22;5379;51.034;7.006;2023-08-07T06:10:08;22.10;99.90
10662;DHT22;5379;51.034;7.006;2023-08-07T06:12:35;21.90;99.90
10662;DHT22;5379;51.034;7.006;2023-08-07T06:15:04;22.00;99.90
10662;DHT22;5379;51.034;7.006;2023-08-07T06:17:31;22.30;99.90
10662;DHT22;5379;51.034;7.006;2023-08-07T06:19:58;22.40;99.90
10662;DHT22;5379;51.034;7.006;2023-08-07T06:22:25;22.10;99.90
10662;DHT22;5379;51.034;7.006;2023-08-07T06:24:52;21.90;99.90
10662;DHT22;5379;51.034;7.006;2023-08-07T06:27:21;21.70;99.90
10662;DHT22;5379;51.034;7.006;2023-08-07T06:29:48;21.80;99.90
10662;DHT22;5379;51.034;7.006;2023-08-07T06:32:16;21.90;99.90
10662;DHT22;5379;51.034;7.006;2023-08-07T06:34:43;22.10;99.90
10662;DHT22;5379;51.034;7.006;2023-08-07T06:37:12;21.90;99.90
10662;DHT22;5379;51.034;7.006;2023-08-07T06:39:39;21.80;99.90
10662;DHT22;5379;51.034;7.006;2023-08-07T06:42:06;21.80;99.90
10662;DHT22;5379;51.034;7.006;2023-08-07T06:44:33;21.60;99.90
10662;DHT22;5379;51.034;7.006;2023-08-07T06:47:00;21.90;99.90
10662;DHT22;5379;51.034;7.006;2023-08-07T06:49:28;21.90;99.90
10662;DHT22;5379;51.034;7.006;2023-08-07T06:51:57;22.00;99.90
10662;DHT22;5379;51.034;7.006;2023-08-07T06:54:24;22.30;99.90
10662;DHT22;5379;51.034;7.006;2023-08-07T06:56:51;22.20;99.90
10662;DHT22;5379;51.034;7.006;2023-08-07T06:59:18;22.30;99.90
10662;DHT22;5379;51.034;7.006;2023-08-07T07:01:44;22.30;99.90
10662;DHT22;5379;51.034;7.006;2023-08-07T07:04:11;22.10;99.90
10662;DHT22;5379;51.034;7.006;2023-08-07T07:06:40;21.70;99.90
10662;DHT22;5379;51.034;7.006;2023-08-07T07:09:07;21.50;99.90
10662;DHT22;5379;51.034;7.006;2023-08-07T07:11:34;21.70;99.90
10662;DHT22;5379;51.034;7.006;2023-08-07T07:14:01;21.80;99.90
10662;DHT22;5379;51.034;7.006;2023-08-07T07:16:28;22.20;99.90
10662;DHT22;5379;51.034;7.006;2023-08-07T07:18:55;21.80;99.90
10662;DHT22;5379;51.034;7.006;2023-08-07T07:21:23;21.50;99.90
10662;DHT22;5379;51.034;7.006;2023-08-07T07:23:52;21.40;99.90
10662;DHT22;5379;51.034;7.006;2023-08-07T07:26:19;21.30;99.90
10662;DHT22;5379;51.034;7.006;2023-08-07T07:28:46;21.10;99.90
10662;DHT22;5379;51.034;7.006;2023-08-07T07:31:13;21.30;99.90
10662;DHT22;5379;51.034;7.006;2023-08-07T07:33:40;21.40;99.90
10662;DHT22;5379;51.034;7.006;2023-08-07T07:36:06;21.40;99.90
10662;DHT22;5379;51.034;7.006;2023-08-07T07:38:33;21.50;99.90
10662;DHT22;5379;51.034;7.006;2023-08-07T07:41:02;21.70;99.90
10662;DHT22;5379;51.034;7.006;2023-08-07T07:43:29;21.50;99.90
10662;DHT22;5379;51.034;7.006;2023-08-07T07:45:57;21.50;99.90
10662;DHT22;5379;51.034;7.006;2023-08-07T07:48:24;21.20;99.90
10662;DHT22;5379;51.034;7.006;2023-08-07T07:50:51;21.10;99.90
10662;DHT22;5379;51.034;7.006;2023-08-07T07:53:19;21.20;99.90
10662;DHT22;5379;51.034;7.006;2023-08-07T07:55:47;21.40;99.90
10662;DHT22;5379;51.034;7.006;2023-08-07T07:58:16;21.40;99.90
10662;DHT22;5379;51.034;7.006;2023-08-07T08:00:43;21.70;99.90
10662;DHT22;5379;51.034;7.006;2023-08-07T08:03:10;21.80;99.90
10662;DHT22;5379;51.034;7.006;2023-08-07T08:05:37;21.40;99.90
10662;DHT22;5379;51.034;7.006;2023-08-07T08:08:06;21.50;99.90
10662;DHT22;5379;51.034;7.006;2023-08-07T08:10:33;21.60;99.90
10662;DHT22;5379;51.034;7.006;2023-08-07T08:13:01;21.90;99.90
10662;DHT22;5379;51.034;7.006;2023-08-07T08:15:30;21.90;99.90
10662;DHT22;5379;51.034;7.006;2023-08-07T08:17:57;21.80;99.90
10662;DHT22;5379;51.034;7.006;2023-08-07T08:20:24;22.00;99.90
10662;DHT22;5379;51.034;7.006;2023-08-07T08:22:51;21.50;99.90
10662;DHT22;5379;51.034;7.006;2023-08-07T08:25:18;21.70;99.90
10662;DHT22;5379;51.034;7.006;2023-08-07T08:27:45;21.80;99.90
10662;DHT22;5379;51.034;7.006;2023-08-07T08:30:12;22.10;99.90
10662;DHT22;5379;51.034;7.006;2023-08-07T08:32:42;21.70;99.90
10662;DHT22;5379;51.034;7.006;2023-08-07T08:35:09;21.80;99.90
10662;DHT22;5379;51.034;7.006;2023-08-07T08:37:37;21.60;99.90
10662;DHT22;5379;51.034;7.006;2023-08-07T08:40:05;21.70;99.90
10662;DHT22;5379;51.034;7.006;2023-08-07T08:42:34;21.90;99.90
10662;DHT22;5379;51.034;7.006;2023-08-07T08:45:01;21.90;99.90
10662;DHT22;5379;51.034;7.006;2023-08-07T08:47:29;21.70;99.90
10662;DHT22;5379;51.034;7.006;2023-08-07T08:50:02;21.80;99.90
10662;DHT22;5379;51.034;7.006;2023-08-07T08:52:32;21.90;99.90
10662;DHT22;5379;51.034;7.006;2023-08-07T08:54:59;21.80;99.90
10662;DHT22;5379;51.034;7.006;2023-08-07T08:57:26;21.90;99.90
10662;DHT22;5379;51.034;7.006;2023-08-07T08:59:53;22.00;99.90
10662;DHT22;5379;51.034;7.006;2023-08-07T09:02:20;21.30;99.90
10662;DHT22;5379;51.034;7.006;2023-08-07T09:04:47;21.60;99.90
10662;DHT22;5379;51.034;7.006;2023-08-07T09:07:15;21.20;99.90
10662;DHT22;5379;51.034;7.006;2023-08-07T09:09:44;20.40;99.90
10662;DHT22;5379;51.034;7.006;2023-08-07T09:12:16;19.80;99.90
10662;DHT22;5379;51.034;7.006;2023-08-07T09:14:50;19.40;99.90
10662;DHT22;5379;51.034;7.006;2023-08-07T09:17:21;19.50;99.90
10662;DHT22;5379;51.034;7.006;2023-08-07T09:19:50;19.00;99.90
10662;DHT22;5379;51.034;7.006;2023-08-07T09:22:18;19.30;99.90
10662;DHT22;5379;51.034;7.006;2023-08-07T09:24:45;19.00;99.90
10662;DHT22;5379;51.034;7.006;2023-08-07T09:27:13;18.80;99.90
10662;DHT22;5379;51.034;7.006;2023-08-07T09:29:40;19.00;99.90
10662;DHT22;5379;51.034;7.006;2023-08-07T09:32:08;19.00;99.90
10662;DHT22;5379;51.034;7.006;2023-08-07T09:34:34;19.60;99.90
10662;DHT22;5379;51.034;7.006;2023-08-07T09:37:01;20.50;99.90
10662;DHT22;5379;51.034;7.006;2023-08-07T09:39:31;21.00;99.90
10662;DHT22;5379;51.034;7.006;2023-08-07T09:41:58;21.50;99.90
10662;DHT22;5379;51.034;7.006;2023-08-07T09:44:25;21.60;99.90
10662;DHT22;5379;51.034;7.006;2023-08-07T09:47:11;21.50;99.90
10662;DHT22;5379;51.034;7.006;2023-08-07T09:49:38;21.60;99.90
10662;DHT22;5379;51.034;7.006;2023-08-07T09:52:07;21.90;99.90
10662;DHT22;5379;51.034;7.006;2023-08-07T09:54:35;22.00;99.90
10662;DHT22;5379;51.034;7.006;2023-08-07T09:57:04;21.80;99.90
10662;DHT22;5379;51.034;7.006;2023-08-07T09:59:32;21.50;99.90
10662;DHT22;5379;51.034;7.006;2023-08-07T10:02:00;21.10;99.90
10662;DHT22;5379;51.034;7.006;2023-08-07T10:04:28;21.10;99.90
10662;DHT22;5379;51.034;7.006;2023-08-07T10:06:56;21.00;99.90
10662;DHT22;5379;51.034;7.006;2023-08-07T10:09:23;20.90;99.90
10662;DHT22;5379;51.034;7.006;2023-08-07T10:11:51;21.00;99.90
10662;DHT22;5379;51.034;7.006;2023-08-07T10:14:18;21.30;99.90
10662;DHT22;5379;51.034;7.006;2023-08-07T10:16:46;21.40;99.90
10662;DHT22;5379;51.034;7.006;2023-08-07T10:19:13;21.50;99.90
10662;DHT22;5379;51.034;7.006;2023-08-07T10:21:40;21.80;99.90
10662;DHT22;5379;51.034;7.006;2023-08-07T10:24:09;21.70;99.90
10662;DHT22;5379;51.034;7.006;2023-08-07T10:26:41;21.70;99.90
10662;DHT22;5379;51.034;7.006;2023-08-07T10:29:13;21.40;99.90
10662;DHT22;5379;51.034;7.006;2023-08-07T10:31:41;21.50;99.90
10662;DHT22;5379;51.034;7.006;2023-08-07T10:34:09;21.30;99.90
10662;DHT22;5379;51.034;7.006;2023-08-07T10:36:37;21.30;99.90
10662;DHT22;5379;51.034;7.006;2023-08-07T10:39:06;21.20;99.90
10662;DHT22;5379;51.034;7.006;2023-08-07T10:41:38;21.80;99.90
10662;DHT22;5379;51.034;7.006;2023-08-07T10:44:17;21.80;99.90
10662;DHT22;5379;51.034;7.006;2023-08-07T10:46:48;21.40;99.90
10662;DHT22;5379;51.034;7.006;2023-08-07T10:49:34;21.70;99.90
10662;DHT22;5379;51.034;7.006;2023-08-07T10:52:08;22.20;99.90
10662;DHT22;5379;51.034;7.006;2023-08-07T10:54:40;22.20;99.90
10662;DHT22;5379;51.034;7.006;2023-08-07T10:57:11;21.90;99.90
10662;DHT22;5379;51.034;7.006;2023-08-07T10:59:44;22.10;99.90
10662;DHT22;5379;51.034;7.006;2023-08-07T11:02:12;22.10;99.90
10662;DHT22;5379;51.034;7.006;2023-08-07T11:04:40;21.80;99.90
10662;DHT22;5379;51.034;7.006;2023-08-07T11:07:07;21.50;99.90
10662;DHT22;5379;51.034;7.006;2023-08-07T11:09:34;21.40;99.90
10662;DHT22;5379;51.034;7.006;2023-08-07T11:12:02;21.30;99.90
10662;DHT22;5379;51.034;7.006;2023-08-07T11:14:29;21.20;99.90
10662;DHT22;5379;51.034;7.006;2023-08-07T11:16:57;21.30;99.90
10662;DHT22;5379;51.034;7.006;2023-08-07T11:19:24;21.70;99.90
10662;DHT22;5379;51.034;7.006;2023-08-07T11:21:53;21.60;99.90
10662;DHT22;5379;51.034;7.006;2023-08-07T11:24:22;21.90;99.90
10662;DHT22;5379;51.034;7.006;2023-08-07T11:26:49;21.80;99.90
10662;DHT22;5379;51.034;7.006;2023-08-07T11:29:18;21.70;99.90
10662;DHT22;5379;51.034;7.006;2023-08-07T11:31:45;21.50;99.90
10662;DHT22;5379;51.034;7.006;2023-08-07T11:34:14;21.60;99.90
10662;DHT22;5379;51.034;7.006;2023-08-07T11:36:41;21.00;99.90
10662;DHT22;5379;51.034;7.006;2023-08-07T11:39:09;20.90;99.90
10662;DHT22;5379;51.034;7.006;2023-08-07T11:41:36;21.20;99.90
10662;DHT22;5379;51.034;7.006;2023-08-07T11:44:04;21.70;99.90
10662;DHT22;5379;51.034;7.006;2023-08-07T11:46:31;21.60;99.90
10662;DHT22;5379;51.034;7.006;2023-08-07T11:48:58;21.30;99.90
10662;DHT22;5379;51.034;7.006;2023-08-07T11:51:27;21.40;99.90
10662;DHT22;5379;51.034;7.006;2023-08-07T11:53:54;21.50;99.90
10662;DHT22;5379;51.034;7.006;2023-08-07T11:56:23;21.30;99.90
10662;DHT22;5379;51.034;7.006;2023-08-07T11:58:52;21.00;99.90
10662;DHT22;5379;51.034;7.006;2023-08-07T12:01:20;20.90;99.90
10662;DHT22;5379;51.034;7.006;2023-08-07T12:03:52;20.90;99.90
10662;DHT22;5379;51.034;7.006;2023-08-07T12:06:20;21.30;99.90
10662;DHT22;5379;51.034;7.006;2023-08-07T12:08:49;21.80;99.90
10662;DHT22;5379;51.034;7.006;2023-08-07T12:11:17;22.00;99.90
10662;DHT22;5379;51.034;7.006;2023-08-07T12:13:45;21.60;99.90
10662;DHT22;5379;51.034;7.006;2023-08-07T12:16:13;21.50;99.90
10662;DHT22;5379;51.034;7.006;2023-08-07T12:18:43;21.40;99.90
10662;DHT22;5379;51.034;7.006;2023-08-07T12:21:14;21.10;99.90
10662;DHT22;5379;51.034;7.006;2023-08-07T12:23:41;21.40;99.90
10662;DHT22;5379;51.034;7.006;2023-08-07T12:26:09;21.50;99.90
10662;DHT22;5379;51.034;7.006;2023-08-07T12:28:37;21.20;99.90
10662;DHT22;5379;51.034;7.006;2023-08-07T12:31:04;21.60;99.90
10662;DHT22;5379;51.034;7.006;2023-08-07T12:33:32;21.80;99.90
10662;DHT22;5379;51.034;7.006;2023-08-07T12:36:00;21.50;99.90
10662;DHT22;5379;51.034;7.006;2023-08-07T12:38:27;21.30;99.90
10662;DHT22;5379;51.034;7.006;2023-08-07T12:40:54;21.50;99.90
10662;DHT22;5379;51.034;7.006;2023-08-07T12:43:23;21.50;99.90
10662;DHT22;5379;51.034;7.006;2023-08-07T12:45:50;21.10;99.90
10662;DHT22;5379;51.034;7.006;2023-08-07T12:48:18;21.20;99.60
10662;DHT22;5379;51.034;7.006;2023-08-07T12:50:45;21.50;99.90
10662;DHT22;5379;51.034;7.006;2023-08-07T12:53:12;21.50;99.70
10662;DHT22;5379;51.034;7.006;2023-08-07T12:55:39;21.40;99.00
10662;DHT22;5379;51.034;7.006;2023-08-07T12:58:06;22.00;99.90
10662;DHT22;5379;51.034;7.006;2023-08-07T13:00:34;22.00;99.90
10662;DHT22;5379;51.034;7.006;2023-08-07T13:03:02;22.00;99.90
10662;DHT22;5379;51.034;7.006;2023-08-07T13:05:47;22.00;99.80
10662;DHT22;5379;51.034;7.006;2023-08-07T13:08:14;21.80;99.90
10662;DHT22;5379;51.034;7.006;2023-08-07T13:10:42;21.50;99.90
10662;DHT22;5379;51.034;7.006;2023-08-07T13:13:09;21.60;99.90
10662;DHT22;5379;51.034;7.006;2023-08-07T13:15:37;21.40;99.90
10662;DHT22;5379;51.034;7.006;2023-08-07T13:18:04;21.40;99.90
10662;DHT22;5379;51.034;7.006;2023-08-07T13:20:31;21.40;99.90
10662;DHT22;5379;51.034;7.006;2023-08-07T13:23:00;21.40;99.90
10662;DHT22;5379;51.034;7.006;2023-08-07T13:25:28;21.50;99.90
10662;DHT22;5379;51.034;7.006;2023-08-07T13:27:54;21.50;99.30
10662;DHT22;5379;51.034;7.006;2023-08-07T13:30:21;21.60;99.90
10662;DHT22;5379;51.034;7.006;2023-08-07T13:32:50;21.80;99.40
10662;DHT22;5379;51.034;7.006;2023-08-07T13:35:17;21.80;96.90
10662;DHT22;5379;51.034;7.006;2023-08-07T13:37:44;21.50;99.90
10662;DHT22;5379;51.034;7.006;2023-08-07T13:40:11;21.20;99.90
10662;DHT22;5379;51.034;7.006;2023-08-07T13:42:39;21.00;99.70
10662;DHT22;5379;51.034;7.006;2023-08-07T13:45:07;21.00;99.60
10662;DHT22;5379;51.034;7.006;2023-08-07T13:47:35;21.00;99.10
10662;DHT22;5379;51.034;7.006;2023-08-07T13:50:05;21.30;99.80
10662;DHT22;5379;51.034;7.006;2023-08-07T13:52:32;21.40;99.30
10662;DHT22;5379;51.034;7.006;2023-08-07T13:54:59;21.50;99.10
10662;DHT22;5379;51.034;7.006;2023-08-07T13:57:26;21.70;97.90
10662;DHT22;5379;51.034;7.006;2023-08-07T13:59:53;21.50;99.10
10662;DHT22;5379;51.034;7.006;2023-08-07T14:02:20;21.40;98.30
10662;DHT22;5379;51.034;7.006;2023-08-07T14:04:47;21.70;96.70
10662;DHT22;5379;51.034;7.006;2023-08-07T14:07:15;22.20;96.80
10662;DHT22;5379;51.034;7.006;2023-08-07T14:09:42;22.40;98.10
10662;DHT22;5379;51.034;7.006;2023-08-07T14:12:09;22.20;97.40
10662;DHT22;5379;51.034;7.006;2023-08-07T14:14:36;22.60;97.40
10662;DHT22;5379;51.034;7.006;2023-08-07T14:17:04;22.60;98.50
10662;DHT22;5379;51.034;7.006;2023-08-07T14:19:31;22.50;95.30
10662;DHT22;5379;51.034;7.006;2023-08-07T14:21:58;22.60;99.50
10662;DHT22;5379;51.034;7.006;2023-08-07T14:24:26;22.40;98.60
10662;DHT22;5379;51.034;7.006;2023-08-07T14:26:53;22.70;98.20
10662;DHT22;5379;51.034;7.006;2023-08-07T14:29:20;23.00;97.60
10662;DHT22;5379;51.034;7.006;2023-08-07T14:31:47;22.50;98.40
10662;DHT22;5379;51.034;7.006;2023-08-07T14:34:15;22.70;98.40
10662;DHT22;5379;51.034;7.006;2023-08-07T14:36:42;22.20;99.20
10662;DHT22;5379;51.034;7.006;2023-08-07T14:39:08;21.70;99.90
10662;DHT22;5379;51.034;7.006;2023-08-07T14:41:37;21.60;99.90
10662;DHT22;5379;51.034;7.006;2023-08-07T14:44:04;21.40;99.90
10662;DHT22;5379;51.034;7.006;2023-08-07T14:46:31;21.20;99.90
10662;DHT22;5379;51.034;7.006;2023-08-07T14:48:57;21.10;99.90
10662;DHT22;5379;51.034;7.006;2023-08-07T14:51:24;21.20;99.90
10662;DHT22;5379;51.034;7.006;2023-08-07T14:53:51;21.50;99.80
10662;DHT22;5379;51.034;7.006;2023-08-07T14:56:18;21.80;99.90
10662;DHT22;5379;51.034;7.006;2023-08-07T14:58:46;21.90;99.90
10662;DHT22;5379;51.034;7.006;2023-08-07T15:01:13;22.10;99.90
10662;DHT22;5379;51.034;7.006;2023-08-07T15:03:40;22.20;99.90
10662;DHT22;5379;51.034;7.006;2023-08-07T15:06:07;22.50;99.90
10662;DHT22;5379;51.034;7.006;2023-08-07T15:08:34;22.50;99.90
10662;DHT22;5379;51.034;7.006;2023-08-07T15:11:01;22.70;99.90
10662;DHT22;5379;51.034;7.006;2023-08-07T15:13:28;22.50;99.90
10662;DHT22;5379;51.034;7.006;2023-08-07T15:15:56;22.50;99.90
10662;DHT22;5379;51.034;7.006;2023-08-07T15:18:23;22.10;99.90
10662;DHT22;5379;51.034;7.006;2023-08-07T15:20:51;22.00;99.90
10662;DHT22;5379;51.034;7.006;2023-08-07T15:23:18;22.20;99.90
10662;DHT22;5379;51.034;7.006;2023-08-07T15:25:45;22.60;99.80
10662;DHT22;5379;51.034;7.006;2023-08-07T15:28:12;23.30;99.50
10662;DHT22;5379;51.034;7.006;2023-08-07T15:30:39;22.80;99.90
10662;DHT22;5379;51.034;7.006;2023-08-07T15:33:07;22.70;99.90
10662;DHT22;5379;51.034;7.006;2023-08-07T15:35:34;22.60;99.80
10662;DHT22;5379;51.034;7.006;2023-08-07T15:38:01;22.70;99.90
10662;DHT22;5379;51.034;7.006;2023-08-07T15:40:28;23.10;99.90
10662;DHT22;5379;51.034;7.006;2023-08-07T15:42:55;23.20;98.50
10662;DHT22;5379;51.034;7.006;2023-08-07T15:45:22;23.00;98.00
10662;DHT22;5379;51.034;7.006;2023-08-07T15:47:49;22.90;98.80
10662;DHT22;5379;51.034;7.006;2023-08-07T15:50:17;23.20;99.90
10662;DHT22;5379;51.034;7.006;2023-08-07T15:52:44;23.20;99.50
10662;DHT22;5379;51.034;7.006;2023-08-07T15:55:11;22.90;98.80
10662;DHT22;5379;51.034;7.006;2023-08-07T15:57:38;22.80;98.20
10662;DHT22;5379;51.034;7.006;2023-08-07T16:00:06;23.00;99.90
10662;DHT22;5379;51.034;7.006;2023-08-07T16:02:35;23.40;99.20
10662;DHT22;5379;51.034;7.006;2023-08-07T16:05:03;23.40;99.00
10662;DHT22;5379;51.034;7.006;2023-08-07T16:07:31;23.10;99.00
10662;DHT22;5379;51.034;7.006;2023-08-07T16:09:58;23.00;99.70
10662;DHT22;5379;51.034;7.006;2023-08-07T16:12:25;23.00;99.90
10662;DHT22;5379;51.034;7.006;2023-08-07T16:14:52;22.90;99.90
10662;DHT22;5379;51.034;7.006;2023-08-07T16:17:21;22.90;99.90
10662;DHT22;5379;51.034;7.006;2023-08-07T16:19:48;22.90;99.90
10662;DHT22;5379;51.034;7.006;2023-08-07T16:22:15;22.60;98.60
10662;DHT22;5379;51.034;7.006;2023-08-07T16:24:43;23.20;99.90
10662;DHT22;5379;51.034;7.006;2023-08-07T16:27:11;23.20;99.40
10662;DHT22;5379;51.034;7.006;2023-08-07T16:29:38;23.00;99.10
10662;DHT22;5379;51.034;7.006;2023-08-07T16:32:05;23.10;99.40
10662;DHT22;5379;51.034;7.006;2023-08-07T16:34:34;22.80;99.90
10662;DHT22;5379;51.034;7.006;2023-08-07T16:37:02;22.40;99.90
10662;DHT22;5379;51.034;7.006;2023-08-07T16:39:28;22.40;99.90
10662;DHT22;5379;51.034;7.006;2023-08-07T16:41:57;22.50;99.90
10662;DHT22;5379;51.034;7.006;2023-08-07T16:44:24;22.10;99.90
10662;DHT22;5379;51.034;7.006;2023-08-07T16:46:51;22.00;99.90
10662;DHT22;5379;51.034;7.006;2023-08-07T16:49:18;22.20;99.90
10662;DHT22;5379;51.034;7.006;2023-08-07T16:51:45;22.50;99.90
10662;DHT22;5379;51.034;7.006;2023-08-07T16:54:12;22.90;99.90
10662;DHT22;5379;51.034;7.006;2023-08-07T16:56:39;22.80;99.90
10662;DHT22;5379;51.034;7.006;2023-08-07T16:59:07;23.00;99.80
10662;DHT22;5379;51.034;7.006;2023-08-07T17:01:34;22.80;99.40
10662;DHT22;5379;51.034;7.006;2023-08-07T17:04:01;22.80;99.40
10662;DHT22;5379;51.034;7.006;2023-08-07T17:06:28;23.20;99.90
10662;DHT22;5379;51.034;7.006;2023-08-07T17:08:54;23.20;99.60
10662;DHT22;5379;51.034;7.006;2023-08-07T17:11:21;23.10;99.80
10662;DHT22;5379;51.034;7.006;2023-08-07T17:13:51;22.20;99.90
10662;DHT22;5379;51.034;7.006;2023-08-07T17:16:20;22.50;99.90
10662;DHT22;5379;51.034;7.006;2023-08-07T17:18:47;22.60;99.90
10662;DHT22;5379;51.034;7.006;2023-08-07T17:21:13;22.80;99.90
10662;DHT22;5379;51.034;7.006;2023-08-07T17:23:41;23.20;99.90
10662;DHT22;5379;51.034;7.006;2023-08-07T17:26:08;23.50;99.90
10662;DHT22;5379;51.034;7.006;2023-08-07T17:28:35;23.50;99.80
10662;DHT22;5379;51.034;7.006;2023-08-07T17:31:02;23.00;99.40
10662;DHT22;5379;51.034;7.006;2023-08-07T17:33:30;23.10;98.90
10662;DHT22;5379;51.034;7.006;2023-08-07T17:35:59;23.10;99.90
10662;DHT22;5379;51.034;7.006;2023-08-07T17:38:26;23.40;99.60
10662;DHT22;5379;51.034;7.006;2023-08-07T17:40:53;23.30;99.60
10662;DHT22;5379;51.034;7.006;2023-08-07T17:43:20;23.60;99.90
10662;DHT22;5379;51.034;7.006;2023-08-07T17:45:47;23.60;99.90
10662;DHT22;5379;51.034;7.006;2023-08-07T17:48:14;23.50;99.90
10662;DHT22;5379;51.034;7.006;2023-08-07T17:50:42;23.70;98.20
10662;DHT22;5379;51.034;7.006;2023-08-07T17:53:09;23.70;99.50
10662;DHT22;5379;51.034;7.006;2023-08-07T17:55:36;23.50;99.90
10662;DHT22;5379;51.034;7.006;2023-08-07T17:58:03;23.90;99.90
10662;DHT22;5379;51.034;7.006;2023-08-07T18:00:30;24.10;99.90
10662;DHT22;5379;51.034;7.006;2023-08-07T18:02:57;24.10;99.90
10662;DHT22;5379;51.034;7.006;2023-08-07T18:05:24;24.10;99.90
10662;DHT22;5379;51.034;7.006;2023-08-07T18:07:52;23.80;99.30
10662;DHT22;5379;51.034;7.006;2023-08-07T18:10:19;24.10;99.90
10662;DHT22;5379;51.034;7.006;2023-08-07T18:12:46;24.10;99.90
10662;DHT22;5379;51.034;7.006;2023-08-07T18:15:13;23.60;99.90
10662;DHT22;5379;51.034;7.006;2023-08-07T18:17:40;23.20;99.90
10662;DHT22;5379;51.034;7.006;2023-08-07T18:20:08;23.30;99.90
10662;DHT22;5379;51.034;7.006;2023-08-07T18:22:37;23.20;97.90
10662;DHT22;5379;51.034;7.006;2023-08-07T18:25:06;22.90;98.40
10662;DHT22;5379;51.034;7.006;2023-08-07T18:27:33;23.40;99.90
10662;DHT22;5379;51.034;7.006;2023-08-07T18:30:00;23.10;99.90
10662;DHT22;5379;51.034;7.006;2023-08-07T18:32:29;23.00;99.90
10662;DHT22;5379;51.034;7.006;2023-08-07T18:34:56;23.20;98.90
10662;DHT22;5379;51.034;7.006;2023-08-07T18:37:23;23.60;99.90
10662;DHT22;5379;51.034;7.006;2023-08-07T18:39:49;23.90;99.00
10662;DHT22;5379;51.034;7.006;2023-08-07T18:42:18;23.40;99.90
10662;DHT22;5379;51.034;7.006;2023-08-07T18:44:45;23.70;99.90
10662;DHT22;5379;51.034;7.006;2023-08-07T18:47:12;23.80;99.90
10662;DHT22;5379;51.034;7.006;2023-08-07T18:49:38;23.60;99.90
10662;DHT22;5379;51.034;7.006;2023-08-07T18:52:06;23.50;99.90
10662;DHT22;5379;51.034;7.006;2023-08-07T18:54:33;23.60;99.50
10662;DHT22;5379;51.034;7.006;2023-08-07T18:57:00;23.90;99.90
10662;DHT22;5379;51.034;7.006;2023-08-07T18:59:30;24.20;99.20
10662;DHT22;5379;51.034;7.006;2023-08-07T19:01:57;24.40;99.70
10662;DHT22;5379;51.034;7.006;2023-08-07T19:04:24;24.40;99.70
10662;DHT22;5379;51.034;7.006;2023-08-07T19:06:50;24.60;99.90
10662;DHT22;5379;51.034;7.006;2023-08-07T19:09:17;24.60;98.80
10662;DHT22;5379;51.034;7.006;2023-08-07T19:11:44;24.60;99.90
10662;DHT22;5379;51.034;7.006;2023-08-07T19:14:11;24.40;99.90
10662;DHT22;5379;51.034;7.006;2023-08-07T19:16:39;24.40;99.90
10662;DHT22;5379;51.034;7.006;2023-08-07T19:19:10;24.30;99.80
10662;DHT22;5379;51.034;7.006;2023-08-07T19:21:38;24.50;99.90
10662;DHT22;5379;51.034;7.006;2023-08-07T19:24:05;24.30;98.50
10662;DHT22;5379;51.034;7.006;2023-08-07T19:26:32;24.20;99.80
10662;DHT22;5379;51.034;7.006;2023-08-07T19:28:59;24.40;99.90
10662;DHT22;5379;51.034;7.006;2023-08-07T19:31:26;24.20;99.00
10662;DHT22;5379;51.034;7.006;2023-08-07T19:33:55;24.20;99.10
10662;DHT22;5379;51.034;7.006;2023-08-07T19:36:22;23.40;99.90
10662;DHT22;5379;51.034;7.006;2023-08-07T19:38:48;23.60;99.70
10662;DHT22;5379;51.034;7.006;2023-08-07T19:41:15;23.90;99.90
10662;DHT22;5379;51.034;7.006;2023-08-07T19:43:42;24.10;99.90
10662;DHT22;5379;51.034;7.006;2023-08-07T19:46:09;24.10;99.00
10662;DHT22;5379;51.034;7.006;2023-08-07T19:48:37;24.20;99.90
10662;DHT22;5379;51.034;7.006;2023-08-07T19:51:05;24.30;98.70
10662;DHT22;5379;51.034;7.006;2023-08-07T19:53:32;24.30;99.30
10662;DHT22;5379;51.034;7.006;2023-08-07T19:55:59;24.50;99.10
10662;DHT22;5379;51.034;7.006;2023-08-07T19:58:26;24.50;99.10
10662;DHT22;5379;51.034;7.006;2023-08-07T20:00:53;24.40;98.20
10662;DHT22;5379;51.034;7.006;2023-08-07T20:03:20;24.20;98.50
10662;DHT22;5379;51.034;7.006;2023-08-07T20:05:47;24.10;97.80
10662;DHT22;5379;51.034;7.006;2023-08-07T20:08:15;23.60;98.30
10662;DHT22;5379;51.034;7.006;2023-08-07T20:10:42;23.50;98.60
10662;DHT22;5379;51.034;7.006;2023-08-07T20:13:09;23.50;99.10
10662;DHT22;5379;51.034;7.006;2023-08-07T20:15:36;23.60;98.80
10662;DHT22;5379;51.034;7.006;2023-08-07T20:18:04;23.90;99.70